Latest Weather Observations for Proserpine

IDQ60801

Issued at 7:02 am EST Sunday 19 November 2017 (issued every 30 minutes, with the page automatically refreshed every 10 minutes)

About weather observations | Map of weather stations | Latest weather observations for QLD | Other Formats
Station Details ID: 033247 Name: PROSERPINE AIRPORT Lat: -20.49 Lon: 148.56 Height: 19.7 m
Data from the previous 72 hours. | See also: Recent months at Proserpine
Date/Time
EST
Temp
°C
App
Temp
°C
Dew
Point
°C
Rel
Hum
%
Delta-T
°C
Wind Press
QNH
hPa
Press
MSL
hPa
Rain since
9am
mm
Dir  Spd
km/h
Gust
km/h
Spd
kts
Gust
kts
19/07:00am 24.0 27.0 20.1 79 2.5 S 4 6 2 3 1012.7 1012.6 0.0
19/06:30am 22.4 25.1 20.7 90 1.1 SSW 7 9 4 5 1012.2 1012.1 0.0
19/06:00am 20.3 23.4 19.6 96 0.4 WSW 2 6 1 3 1012.0 1011.9 0.0
19/05:30am 19.3 21.2 18.5 95 0.5 WSW 6 7 3 4 1011.6 1011.5 0.0
19/05:00am 19.8 21.9 19.0 95 0.5 SSW 6 7 3 4 1011.2 1011.1 0.0
19/04:30am 20.0 21.6 19.2 95 0.5 SSW 9 11 5 6 1011.1 1011.0 0.0
19/04:00am 20.4 23.5 19.4 94 0.6 SSW 2 7 1 4 1011.0 1010.9 0.0
19/03:30am 20.3 23.0 19.5 95 0.5 S 4 9 2 5 1011.0 1010.9 0.0
19/03:00am 19.8 21.8 18.8 94 0.6 SSW 6 7 3 4 1010.6 1010.5 0.0
19/02:30am 20.0 21.9 19.0 94 0.6 SW 7 9 4 5 1010.7 1010.6 0.0
19/02:00am 19.9 22.0 18.9 94 0.6 WSW 6 7 3 4 1010.6 1010.5 0.0
19/01:30am 20.1 21.8 19.3 95 0.5 SSW 9 11 5 6 1011.1 1011.0 0.0
19/01:00am 20.0 21.3 19.2 95 0.5 SSW 11 13 6 7 1011.4 1011.3 0.0
19/12:30am 20.2 22.5 19.4 95 0.5 SSW 6 7 3 4 1011.8 1011.7 0.0
19/12:00am 20.0 22.1 19.0 94 0.6 SSW 6 9 3 5 1012.2 1012.1 0.0
 
Date/Time
EST
Temp
°C
App
Temp
°C
Dew
Point
°C
Rel
Hum
%
Delta-T
°C
Wind Press
QNH
hPa
Press
MSL
hPa
Rain since
9am
mm
Dir  Spd
km/h
Gust
km/h
Spd
kts
Gust
kts
18/11:30pm 20.5 22.7 19.3 93 0.8 S 6 6 3 3 1012.3 1012.2 0.0
18/11:00pm 20.6 22.9 19.4 93 0.8 S 6 6 3 3 1012.6 1012.5 0.0
18/10:30pm 20.4 22.4 19.2 93 0.8 SSW 7 9 4 5 1012.8 1012.7 0.0
18/10:00pm 20.7 23.0 19.4 92 0.8 S 6 9 3 5 1012.7 1012.6 0.0
18/09:30pm 21.4 23.3 19.7 90 1.1 S 9 11 5 6 1012.4 1012.3 0.0
18/09:00pm 21.7 23.7 19.1 85 1.6 SE 7 7 4 4 1012.3 1012.2 0.0
18/08:30pm 22.0 24.1 19.0 83 1.9 SE 6 7 3 4 1012.1 1012.0 0.0
18/08:00pm 22.4 24.2 18.8 80 2.3 ESE 7 9 4 5 1012.0 1011.9 0.0
18/07:30pm 22.7 24.2 18.9 79 2.4 E 9 11 5 6 1011.6 1011.5 0.0
18/07:00pm 23.0 24.3 19.4 80 2.3 ESE 11 15 6 8 1011.4 1011.3 0.0
18/06:30pm 23.6 24.8 19.9 80 2.4 ESE 13 17 7 9 1011.3 1011.2 0.0
18/06:00pm 24.5 25.2 20.4 78 2.7 ESE 17 20 9 11 1011.0 1010.9 0.0
18/05:30pm 25.3 25.3 20.1 73 3.4 ESE 20 28 11 15 1010.6 1010.5 0.0
18/05:00pm 26.1 25.9 19.7 68 4.1 ESE 20 28 11 15 1010.6 1010.5 0.0
18/04:30pm 26.6 26.3 19.5 65 4.6 ESE 20 30 11 16 1010.5 1010.4 0.0
18/04:00pm 27.1 26.4 18.7 60 5.4 ESE 20 28 11 15 1010.6 1010.5 0.0
18/03:30pm 27.5 27.1 18.8 59 5.6 ESE 19 30 10 16 1010.8 1010.7 0.0
18/03:00pm 27.7 25.9 16.0 49 7.2 ESE 20 26 11 14 1011.0 1010.9 0.0
18/02:30pm 28.1 27.1 17.6 53 6.6 ESE 19 28 10 15 1011.3 1011.2 0.0
18/02:00pm 28.3 26.8 16.2 47 7.5 SE 19 28 10 15 1011.6 1011.5 0.0
18/01:30pm 27.4 26.1 17.3 54 6.3 ESE 20 30 11 16 1012.0 1011.9 0.0
18/01:00pm 28.3 27.5 18.4 55 6.3 ESE 20 32 11 17 1012.3 1012.2 0.0
18/12:30pm 27.5 25.6 18.5 58 5.8 SE 26 35 14 19 1012.8 1012.7 0.0
18/12:00pm 27.5 26.2 19.0 59 5.5 ESE 24 35 13 19 1013.2 1013.1 0.0
18/11:30am 27.7 26.5 19.2 60 5.5 ESE 24 33 13 18 1013.5 1013.4 0.0
18/11:00am 27.6 25.9 18.0 55 6.1 ESE 24 37 13 20 1013.7 1013.6 0.0
18/10:30am 28.0 26.8 19.2 58 5.7 SE 24 32 13 17 1014.0 1013.9 0.0
18/10:00am 27.3 26.1 17.5 55 6.2 ESE 20 28 11 15 1014.0 1013.9 0.0
18/09:30am 27.3 26.3 18.9 60 5.4 ESE 22 30 12 16 1014.0 1013.9 0.0
18/09:00am 26.5 25.3 17.6 58 5.6 SE 20 26 11 14 1014.0 1013.9 0.0
18/08:30am 26.4 26.0 18.8 63 4.9 SE 19 26 10 14 1013.9 1013.8 0.0
18/08:00am 25.1 25.4 19.5 71 3.6 SE 17 24 9 13 1013.7 1013.6 0.0
18/07:30am 24.4 26.7 19.9 76 2.9 SE 7 11 4 6 1013.7 1013.6 0.0
18/07:00am 22.4 24.6 19.6 84 1.8 SSW 7 9 4 5 1013.6 1013.5 0.0
18/06:30am 21.7 23.8 19.3 86 1.5 SW 7 11 4 6 1013.3 1013.2 0.0
18/06:00am 21.2 22.9 19.3 89 1.2 S 9 11 5 6 1012.7 1012.6 0.0
18/05:30am 20.4 21.5 18.9 91 0.9 SSW 11 13 6 7 1012.4 1012.3 0.0
18/05:00am 20.3 21.4 18.8 91 0.9 SSW 11 13 6 7 1012.1 1012.0 0.0
18/04:30am 20.2 22.0 18.7 91 0.9 SSW 7 9 4 5 1011.8 1011.7 0.0
18/04:00am 20.3 22.1 18.8 91 0.9 SSW 7 9 4 5 1011.7 1011.6 0.0
18/03:58am 20.3 22.1 18.8 91 0.9 SSW 7 9 4 5 1011.7 1011.6 0.0
18/03:30am 20.4 23.2 18.9 91 0.9 SSW 2 6 1 3 1011.7 1011.6 0.0
18/03:24am 20.3 22.7 18.8 91 0.9 SW 4 6 2 3 1011.8 1011.7 0.0
18/03:00am 19.9 21.3 18.6 92 0.8 SSW 9 13 5 7 1011.7 1011.6 0.0
18/02:30am 19.6 20.7 18.1 91 0.9 SSW 9 11 5 6 1011.9 1011.8 0.0
18/02:00am 20.2 21.1 18.5 90 1.1 S 11 13 6 7 1012.0 1011.9 0.0
18/01:30am 19.9 21.6 18.4 91 0.9 SSW 7 9 4 5 1012.5 1012.4 0.0
18/01:00am 20.1 21.5 18.6 91 0.9 SSW 9 13 5 7 1012.9 1012.8 0.0
18/12:30am 20.3 21.9 18.2 88 1.3 SSW 7 9 4 5 1013.3 1013.2 0.0
18/12:00am 21.0 22.8 18.2 84 1.7 SSW 6 7 3 4 1013.7 1013.6 0.0
 
Date/Time
EST
Temp
°C
App
Temp
°C
Dew
Point
°C
Rel
Hum
%
Delta-T
°C
Wind Press
QNH
hPa
Press
MSL
hPa
Rain since
9am
mm
Dir  Spd
km/h
Gust
km/h
Spd
kts
Gust
kts
17/11:30pm 21.5 22.7 18.3 82 2.0 ESE 9 11 5 6 1013.7 1013.6 0.0
17/11:00pm 22.0 23.7 18.4 80 2.3 SE 7 9 4 5 1014.0 1013.9 0.0
17/10:30pm 22.3 24.0 18.5 79 2.4 ESE 7 9 4 5 1014.2 1014.1 0.0
17/10:00pm 22.2 23.4 18.2 78 2.5 ESE 9 11 5 6 1014.3 1014.2 0.0
17/09:30pm 22.4 23.2 18.2 77 2.6 ESE 11 15 6 8 1013.8 1013.7 0.0
17/09:00pm 22.7 24.2 18.9 79 2.4 ESE 9 13 5 7 1013.6 1013.5 0.0
17/08:30pm 22.7 24.2 18.9 79 2.4 ESE 9 11 5 6 1013.5 1013.4 0.0
17/08:00pm 22.9 24.2 18.4 76 2.8 ESE 9 13 5 7 1013.4 1013.3 0.0
17/07:30pm 23.1 24.0 18.4 75 3.0 E 11 13 6 7 1013.3 1013.2 0.0
17/07:00pm 23.5 24.1 18.6 74 3.1 ESE 13 17 7 9 1013.2 1013.1 0.0
17/06:30pm 24.1 24.7 18.5 71 3.5 ESE 13 17 7 9 1013.0 1012.9 0.0
17/06:00pm 24.9 24.3 18.4 67 4.1 ESE 19 26 10 14 1012.7 1012.6 0.0
17/05:30pm 25.4 24.3 17.8 62 4.8 ESE 20 30 11 16 1012.5 1012.4 0.0
17/05:00pm 25.6 24.7 18.3 64 4.6 ESE 20 32 11 17 1012.5 1012.4 0.0
17/04:30pm 26.1 24.5 16.4 55 6.0 ESE 20 30 11 16 1012.2 1012.1 0.0
17/04:00pm 26.4 24.9 18.5 62 5.0 ESE 24 32 13 17 1012.2 1012.1 0.0
17/03:30pm 26.7 25.5 19.3 64 4.8 ESE 24 35 13 19 1012.5 1012.4 0.0
17/03:00pm 26.8 26.0 19.2 63 4.9 ESE 22 32 12 17 1012.8 1012.7 0.0
17/02:30pm 27.7 26.3 18.7 58 5.8 E 24 37 13 20 1012.8 1012.7 0.0
17/02:00pm 27.7 26.1 18.4 57 5.9 ESE 24 35 13 19 1012.9 1012.8 0.0
17/01:30pm 28.1 27.3 20.1 62 5.2 ESE 24 33 13 18 1013.3 1013.2 0.0
17/01:00pm 27.7 26.9 19.2 60 5.5 ESE 22 33 12 18 1013.8 1013.7 0.0
17/12:30pm 26.9 25.4 18.5 60 5.4 ESE 24 35 13 19 1013.9 1013.8 0.0
17/12:00pm 27.2 25.7 18.5 59 5.6 ESE 24 33 13 18 1014.3 1014.2 0.0
17/11:30am 28.3 27.0 19.0 57 6.0 ESE 24 33 13 18 1014.4 1014.3 0.0
17/11:00am 28.2 27.4 19.2 58 5.8 ESE 22 32 12 17 1014.9 1014.8 0.0
17/10:30am 27.7 26.4 19.0 59 5.6 ESE 24 32 13 17 1014.9 1014.8 0.0
17/10:00am 26.3 26.5 20.2 69 4.0 SE 19 26 10 14 1015.1 1015.0 0.0
17/09:30am 26.7 26.0 18.6 61 5.2 ESE 20 26 11 14 1015.0 1014.9 0.0
17/09:00am 26.0 25.2 17.9 61 5.1 SE 19 26 10 14 1015.0 1014.9 0.2
17/08:30am 25.8 25.7 18.7 65 4.5 ESE 17 24 9 13 1014.7 1014.6 0.2
17/08:00am 25.6 26.1 19.3 68 4.0 ESE 15 22 8 12 1014.5 1014.4 0.2
17/07:30am 24.9 25.9 19.5 72 3.5 SSE 13 24 7 13 1014.2 1014.1 0.2
17/07:00am 23.3 25.2 19.0 77 2.7 S 7 9 4 5 1014.2 1014.1 0.2
17/06:30am 21.4 23.3 19.0 86 1.5 SSW 7 9 4 5 1014.1 1014.0 0.2
17/06:00am 20.0 22.2 18.3 90 1.1 SW 4 7 2 4 1013.8 1013.7 0.2
17/05:30am 19.5 21.0 18.0 91 0.9 SSW 7 9 4 5 1013.5 1013.4 0.2
17/05:00am 19.3 20.6 17.6 90 1.0 SSW 7 9 4 5 1013.5 1013.4 0.2
17/04:30am 19.4 21.0 17.9 91 0.9 SSW 6 9 3 5 1013.2 1013.1 0.2
17/04:00am 19.7 21.3 18.2 91 0.9 SSW 7 9 4 5 1013.2 1013.1 0.2
17/03:30am 19.9 21.6 18.0 89 1.2 SSW 6 9 3 5 1013.1 1013.0 0.2
17/03:00am 20.0 22.1 18.0 88 1.2 SW 4 7 2 4 1013.1 1013.0 0.2
17/02:30am 20.4 22.5 18.0 86 1.5 SSW 4 6 2 3 1012.9 1012.8 0.2
17/02:00am 20.5 21.9 17.9 85 1.6 SSW 7 11 4 6 1013.0 1012.9 0.2
17/01:30am 22.0 22.5 17.4 75 2.8 ESE 11 13 6 7 1013.1 1013.0 0.2
17/01:00am 22.3 22.9 17.7 75 2.9 ESE 11 19 6 10 1013.3 1013.2 0.2
17/12:30am 22.6 23.1 18.4 77 2.6 ESE 13 19 7 10 1013.6 1013.5 0.2
17/12:00am 22.6 23.2 18.6 78 2.5 ESE 13 17 7 9 1013.9 1013.8 0.2
 
Date/Time
EST
Temp
°C
App
Temp
°C
Dew
Point
°C
Rel
Hum
%
Delta-T
°C
Wind Press
QNH
hPa
Press
MSL
hPa
Rain since
9am
mm
Dir  Spd
km/h
Gust
km/h
Spd
kts
Gust
kts
16/11:30pm 22.9 23.5 18.7 77 2.7 ESE 13 15 7 8 1014.1 1014.0 0.2
16/11:00pm 22.7 23.3 18.5 77 2.6 ESE 13 17 7 9 1014.5 1014.4 0.2
16/10:30pm 22.9 23.5 18.7 77 2.7 ESE 13 17 7 9 1014.5 1014.4 0.2
16/10:00pm 22.8 23.5 18.8 78 2.5 ESE 13 17 7 9 1014.6 1014.5 0.2
16/09:30pm 23.1 23.3 18.6 76 2.8 ESE 15 19 8 10 1014.5 1014.4 0.2
16/09:00pm 23.1 23.2 18.4 75 3.0 ESE 15 24 8 13 1014.2 1014.1 0.2
16/08:30pm 22.8 23.2 18.1 75 2.9 ESE 13 19 7 10 1014.1 1014.0 0.2
16/08:00pm 22.6 23.1 18.4 77 2.6 ESE 13 17 7 9 1013.9 1013.8 0.2
16/07:30pm 22.2 22.8 17.8 76 2.7 ESE 11 15 6 8 1013.7 1013.6 0.2
16/07:00pm 23.2 23.4 17.7 71 3.4 ESE 13 17 7 9 1013.6 1013.5 0.2
16/06:30pm 23.6 24.1 18.3 72 3.3 ESE 13 19 7 10 1013.3 1013.2 0.2
16/06:00pm 24.3 23.6 18.2 68 3.8 ESE 19 26 10 14 1013.2 1013.1 0.2
16/05:30pm 25.3 24.4 18.2 64 4.5 E 20 32 11 17 1012.8 1012.7 0.2
16/05:00pm 25.8 24.5 18.2 63 4.8 ESE 22 32 12 17 1012.5 1012.4 0.2
16/04:30pm 26.5 24.9 18.4 61 5.2 ESE 24 32 13 17 1012.2 1012.1 0.2
16/04:00pm 26.6 25.1 18.5 61 5.2 ESE 24 33 13 18 1012.2 1012.1 0.2
16/03:30pm 27.1 25.3 17.8 56 5.9 ESE 24 33 13 18 1012.0 1011.9 0.2
16/03:00pm 27.5 25.5 17.4 54 6.4 ESE 24 32 13 17 1012.1 1012.0 0.2
16/02:30pm 27.5 24.8 16.5 51 6.8 ESE 26 35 14 19 1012.1 1012.0 0.2
16/02:00pm 28.0 26.7 19.8 61 5.4 ESE 26 35 14 19 1012.4 1012.3 0.2
16/01:30pm 28.0 26.8 19.2 58 5.7 SE 24 35 13 19 1012.7 1012.6 0.2
16/01:00pm 27.5 26.5 18.8 59 5.6 ESE 22 32 12 17 1013.1 1013.0 0.2
16/12:30pm 27.9 26.9 18.9 58 5.8 ESE 22 32 12 17 1013.5 1013.4 0.2
16/12:00pm 27.9 26.7 18.3 56 6.1 ESE 22 33 12 18 1013.7 1013.6 0.2
16/11:30am 27.2 25.3 17.7 56 6.0 ESE 24 32 13 17 1014.2 1014.1 0.2
16/11:00am 26.3 24.9 17.9 60 5.3 ESE 22 30 12 16 1014.7 1014.6 0.2
16/10:30am 26.5 25.2 18.1 60 5.3 ESE 22 32 12 17 1014.9 1014.8 0.2
16/10:00am 26.3 25.7 19.7 67 4.3 ESE 22 30 12 16 1014.9 1014.8 0.2
16/09:30am 25.7 24.7 18.9 66 4.3 SE 22 28 12 15 1015.0 1014.9 0.0
16/09:00am 25.5 25.9 20.7 75 3.1 SE 19 26 10 14 1014.9 1014.8 1.2
16/08:30am 24.3 24.7 20.6 80 2.4 SE 19 26 10 14 1014.8 1014.7 1.2
16/08:00am 23.6 25.4 20.3 82 2.1 SSE 11 13 6 7 1014.7 1014.6 1.2
16/07:30am 23.0 24.6 20.7 87 1.5 SSE 13 19 7 10 1014.5 1014.4 1.2

Other Formats:

Comma delimited format used in spreadsheet applications
http://www.bom.gov.au/fwo/IDQ60801/IDQ60801.94365.axf

JavaScript Object Notation format (JSON) in row-major order
http://www.bom.gov.au/fwo/IDQ60801/IDQ60801.94365.json